Time;durP1;ratioP1;P1;durP2;ratioP2;P2;SDS_P1;SDS_P2;PMS_P1;PMS_P2;Temp;Humidity;BMP_temperature;BMP_pressure;BME280_temperature;BME280_humidity;BME280_pressure;Samples;Min_cycle;Max_cycle;Signal;HPM_P1;HPM_P2
2022/09/19 00:00:38;;;;;;;2.30;2.00;;;13.10;99.90;;;;;;6130446;29;20479;-67
2022/09/19 00:03:45;;;;;;;3.07;2.47;;;13.10;99.90;;;;;;6130370;28;20472;-67
2022/09/19 00:06:50;;;;;;;3.63;1.80;;;13.10;99.90;;;;;;6131612;29;20511;-67
2022/09/19 00:09:53;;;;;;;5.13;2.03;;;13.10;99.90;;;;;;6131221;28;20483;-67
2022/09/19 00:12:56;;;;;;;1.80;1.50;;;13.20;99.90;;;;;;6132433;29;20987;-67
2022/09/19 00:15:59;;;;;;;4.43;2.10;;;13.10;99.90;;;;;;6132592;29;20479;-67
2022/09/19 00:19:08;;;;;;;2.93;1.53;;;13.20;99.90;;;;;;6132785;29;20471;-67
2022/09/19 00:22:12;;;;;;;2.40;1.60;;;13.10;99.90;;;;;;6132777;29;20539;-67
2022/09/19 00:25:14;;;;;;;1.63;1.50;;;13.10;99.90;;;;;;6130633;29;20494;-67
2022/09/19 00:28:17;;;;;;;5.50;1.50;;;13.00;99.90;;;;;;6133013;29;20480;-67
2022/09/19 00:31:22;;;;;;;4.87;1.80;;;13.00;99.90;;;;;;6130467;29;20475;-67
2022/09/19 00:34:28;;;;;;;7.50;1.40;;;13.00;99.90;;;;;;6131502;29;20479;-67
2022/09/19 00:37:31;;;;;;;1.60;1.50;;;13.10;99.90;;;;;;6131822;29;20978;-67
2022/09/19 00:40:35;;;;;;;1.93;1.27;;;13.10;99.90;;;;;;6132069;29;20472;-67
2022/09/19 00:43:50;;;;;;;3.00;1.53;;;13.10;99.90;;;;;;6130740;29;20539;-67
2022/09/19 00:46:59;;;;;;;3.20;1.50;;;13.10;99.90;;;;;;6131029;29;20480;-67
2022/09/19 00:50:09;;;;;;;3.43;2.07;;;13.00;99.90;;;;;;6131275;29;20531;-67
2022/09/19 00:53:16;;;;;;;2.53;1.80;;;13.00;99.90;;;;;;6130424;29;20499;-67
2022/09/19 00:56:19;;;;;;;2.70;1.47;;;13.00;99.90;;;;;;6131266;29;20486;-67
2022/09/19 00:59:25;;;;;;;2.10;1.60;;;12.80;99.90;;;;;;6131386;29;20483;-67
2022/09/19 01:02:30;;;;;;;3.80;1.53;;;12.90;99.90;;;;;;6131459;29;20558;-67
2022/09/19 01:05:44;;;;;;;3.80;2.57;;;12.90;99.90;;;;;;6130950;29;20476;-67
2022/09/19 01:09:02;;;;;;;1.60;1.50;;;12.80;99.90;;;;;;6155098;28;20475;-67
2022/09/19 01:12:31;;;;;;;3.77;2.23;;;12.80;99.90;;;;;;6150742;28;20475;-67
2022/09/19 01:15:44;;;;;;;3.67;2.30;;;12.90;99.90;;;;;;6155087;28;20474;-66
2022/09/19 01:18:53;;;;;;;2.50;1.87;;;12.90;99.90;;;;;;6156434;28;20850;-66
2022/09/19 01:22:05;;;;;;;2.23;1.77;;;12.90;99.90;;;;;;6156832;28;20471;-66
2022/09/19 01:25:19;;;;;;;2.00;1.80;;;12.90;99.90;;;;;;6154060;28;20538;-66
2022/09/19 01:28:27;;;;;;;2.63;2.00;;;12.90;99.90;;;;;;6154526;28;20561;-66
2022/09/19 01:31:35;;;;;;;2.33;2.00;;;13.00;99.90;;;;;;6153791;28;20483;-66
2022/09/19 01:34:41;;;;;;;2.77;2.33;;;13.00;99.90;;;;;;6154315;28;20963;-66
2022/09/19 01:37:49;;;;;;;3.17;1.83;;;12.90;99.90;;;;;;6154105;28;20483;-67
2022/09/19 01:40:54;;;;;;;2.03;1.77;;;13.00;99.90;;;;;;6153626;28;20482;-67
2022/09/19 01:44:05;;;;;;;2.90;1.70;;;13.00;99.90;;;;;;6153619;28;20557;-67
2022/09/19 01:47:17;;;;;;;2.13;1.90;;;13.00;99.90;;;;;;6154161;28;20474;-67
2022/09/19 01:50:31;;;;;;;1.87;1.53;;;13.00;99.90;;;;;;6153698;28;20487;-67
2022/09/19 01:53:54;;;;;;;1.53;1.30;;;13.00;99.90;;;;;;6153700;28;20462;-66
2022/09/19 01:57:06;;;;;;;2.07;1.80;;;13.00;99.90;;;;;;6153668;28;20990;-67
2022/09/19 02:00:14;;;;;;;2.83;1.93;;;12.90;99.90;;;;;;6153819;28;20511;-66
2022/09/19 02:03:23;;;;;;;2.20;1.60;;;12.90;99.90;;;;;;6153270;28;21004;-67
2022/09/19 02:06:37;;;;;;;1.57;1.20;;;12.80;99.90;;;;;;6154001;28;20483;-66
2022/09/19 02:09:47;;;;;;;2.47;1.67;;;12.80;99.90;;;;;;6153430;28;20490;-66
2022/09/19 02:12:55;;;;;;;2.63;1.20;;;12.80;99.90;;;;;;6153802;28;20482;-66
2022/09/19 02:16:05;;;;;;;1.83;1.60;;;12.80;99.90;;;;;;6148955;28;20475;-67
2022/09/19 02:19:15;;;;;;;1.70;1.60;;;12.80;99.90;;;;;;6153209;28;20634;-68
2022/09/19 02:22:26;;;;;;;2.37;1.87;;;12.80;99.90;;;;;;6153139;28;20483;-67
2022/09/19 02:25:33;;;;;;;2.07;1.43;;;12.80;99.90;;;;;;6153826;28;20483;-67
2022/09/19 02:28:42;;;;;;;1.60;1.40;;;12.60;99.90;;;;;;6153082;28;20478;-68
2022/09/19 02:31:46;;;;;;;1.47;1.30;;;12.50;99.90;;;;;;6153265;28;20483;-69
2022/09/19 02:34:50;;;;;;;2.20;1.57;;;12.40;99.90;;;;;;6153210;28;21024;-68
2022/09/19 02:38:02;;;;;;;1.40;1.30;;;12.30;99.90;;;;;;6153041;28;20493;-68
2022/09/19 02:41:12;;;;;;;1.67;1.30;;;12.20;99.90;;;;;;6152835;28;20491;-69
2022/09/19 02:44:21;;;;;;;1.83;1.50;;;12.20;99.90;;;;;;6153205;28;20474;-67
2022/09/19 02:47:31;;;;;;;2.00;1.60;;;12.30;99.90;;;;;;6152936;28;20844;-67
2022/09/19 02:50:43;;;;;;;2.10;1.30;;;12.30;99.90;;;;;;6152768;28;20542;-67
2022/09/19 02:53:53;;;;;;;1.80;1.70;;;12.40;99.90;;;;;;6153069;28;20447;-68
2022/09/19 02:57:00;;;;;;;2.03;1.60;;;12.30;99.90;;;;;;6153242;28;20473;-68
2022/09/19 03:00:06;;;;;;;2.37;2.17;;;12.30;99.90;;;;;;6152804;28;20943;-67
2022/09/19 03:06:37;;;;;;;2.33;1.80;;;12.20;99.90;;;;;;6152470;28;20954;-67
2022/09/19 03:09:46;;;;;;;2.20;1.77;;;12.10;99.90;;;;;;6152318;28;20486;-67
2022/09/19 03:12:53;;;;;;;2.80;2.13;;;12.20;99.90;;;;;;6153091;28;20509;-67
2022/09/19 03:16:01;;;;;;;4.23;1.70;;;12.20;99.90;;;;;;6153441;28;20550;-66
2022/09/19 03:19:07;;;;;;;2.70;1.90;;;12.30;99.90;;;;;;6153123;28;20485;-66
2022/09/19 03:22:10;;;;;;;2.83;2.63;;;12.30;99.90;;;;;;6157085;28;20490;-67
2022/09/19 03:25:14;;;;;;;3.20;1.80;;;12.30;99.90;;;;;;6157163;28;20486;-66
2022/09/19 03:28:19;;;;;;;2.90;1.70;;;12.40;99.90;;;;;;6157010;28;20474;-66
2022/09/19 03:31:22;;;;;;;2.40;2.00;;;12.30;99.90;;;;;;6156774;28;20482;-66
2022/09/19 03:34:28;;;;;;;2.57;1.60;;;12.40;99.90;;;;;;6156954;28;20589;-66
2022/09/19 03:37:33;;;;;;;1.73;1.57;;;12.40;99.90;;;;;;6156561;28;20486;-66
2022/09/19 03:40:37;;;;;;;3.73;1.70;;;12.30;99.90;;;;;;6156778;28;20470;-66
2022/09/19 03:43:42;;;;;;;4.53;2.13;;;12.30;99.90;;;;;;6156117;28;20498;-66
2022/09/19 03:46:46;;;;;;;2.20;1.87;;;12.30;99.90;;;;;;6156716;28;20541;-67
2022/09/19 03:49:50;;;;;;;2.00;1.83;;;12.20;99.90;;;;;;6156324;28;20490;-67
2022/09/19 03:52:53;;;;;;;2.17;1.97;;;12.20;99.90;;;;;;6156565;28;20487;-67
2022/09/19 03:55:57;;;;;;;2.63;1.83;;;12.10;99.90;;;;;;6156221;28;20534;-67
2022/09/19 03:59:00;;;;;;;3.30;1.87;;;12.20;99.90;;;;;;6156300;28;20486;-67
2022/09/19 04:02:03;;;;;;;2.40;2.00;;;12.10;99.90;;;;;;6156267;28;20668;-67
2022/09/19 04:05:09;;;;;;;1.43;1.33;;;12.10;99.90;;;;;;6156326;28;20478;-67
2022/09/19 04:08:12;;;;;;;2.70;1.23;;;12.00;99.90;;;;;;6155850;28;20475;-67
2022/09/19 04:11:16;;;;;;;2.97;2.17;;;12.00;99.90;;;;;;6156829;28;20497;-67
2022/09/19 04:14:19;;;;;;;4.53;1.40;;;12.00;99.90;;;;;;6156336;28;20499;-67
2022/09/19 04:17:22;;;;;;;2.80;1.97;;;11.90;99.90;;;;;;6155849;28;20487;-67
2022/09/19 04:20:27;;;;;;;2.10;1.50;;;11.70;99.90;;;;;;6155795;28;20802;-68
2022/09/19 04:23:30;;;;;;;5.07;2.00;;;11.60;99.90;;;;;;6155117;28;20475;-67
2022/09/19 04:26:33;;;;;;;2.37;1.50;;;11.50;99.90;;;;;;6150471;28;20842;-66
2022/09/19 04:29:36;;;;;;;5.53;2.00;;;11.50;99.90;;;;;;6154373;28;20963;-67
2022/09/19 04:32:39;;;;;;;2.73;1.60;;;11.50;99.90;;;;;;6155199;28;20930;-67
2022/09/19 04:35:45;;;;;;;3.73;1.90;;;11.40;99.90;;;;;;6155810;28;20458;-68
2022/09/19 04:38:49;;;;;;;2.23;2.03;;;11.40;99.90;;;;;;6155698;28;20531;-68
2022/09/19 04:41:52;;;;;;;3.73;3.43;;;11.40;99.90;;;;;;6155116;28;20541;-68
2022/09/19 04:44:56;;;;;;;2.33;2.17;;;11.40;99.90;;;;;;6155887;28;20486;-68
2022/09/19 04:47:59;;;;;;;2.40;1.97;;;11.40;99.90;;;;;;6155607;28;20467;-67
2022/09/19 04:51:05;;;;;;;2.83;2.63;;;11.30;99.90;;;;;;6155084;28;20477;-67
2022/09/19 04:54:09;;;;;;;3.67;2.30;;;11.20;99.90;;;;;;6155621;28;20475;-67
2022/09/19 04:57:13;;;;;;;3.43;2.50;;;11.00;99.90;;;;;;6155311;28;20530;-67
2022/09/19 05:00:36;;;;;;;4.17;2.40;;;11.00;99.90;;;;;;6155185;28;20490;-66
2022/09/19 05:03:43;;;;;;;5.47;2.60;;;11.00;99.90;;;;;;6155017;28;20490;-67
2022/09/19 05:06:47;;;;;;;3.03;2.73;;;11.10;99.90;;;;;;6155006;28;20970;-67
2022/09/19 05:09:50;;;;;;;6.70;3.00;;;11.20;99.90;;;;;;6155006;28;20550;-67
2022/09/19 05:12:53;;;;;;;4.00;2.33;;;11.20;99.90;;;;;;6154636;28;20802;-68
2022/09/19 05:15:57;;;;;;;4.67;2.33;;;11.30;99.90;;;;;;6154694;28;20481;-67
2022/09/19 05:19:01;;;;;;;4.57;3.00;;;11.40;99.90;;;;;;6154605;28;20514;-67
2022/09/19 05:22:05;;;;;;;3.50;2.87;;;11.40;99.90;;;;;;6154198;28;20590;-67
2022/09/19 05:25:09;;;;;;;4.70;2.83;;;11.40;99.90;;;;;;6154521;28;20482;-67
2022/09/19 05:28:12;;;;;;;3.07;2.30;;;11.40;99.90;;;;;;6154724;28;20541;-68
2022/09/19 05:31:18;;;;;;;3.17;2.23;;;11.40;99.90;;;;;;6154204;28;20494;-68
2022/09/19 05:34:22;;;;;;;1.90;1.80;;;11.40;99.90;;;;;;6153594;28;20486;-67
2022/09/19 05:37:27;;;;;;;3.40;2.43;;;11.50;99.90;;;;;;6118452;29;20481;-67
2022/09/19 05:40:31;;;;;;;3.77;2.33;;;11.50;99.90;;;;;;6105336;29;21324;-68
2022/09/19 05:43:34;;;;;;;4.57;2.60;;;11.50;99.90;;;;;;6105704;29;20476;-68
2022/09/19 05:46:38;;;;;;;3.63;2.10;;;11.50;99.90;;;;;;6106321;29;20591;-67
2022/09/19 05:49:41;;;;;;;3.37;2.20;;;11.50;99.90;;;;;;6106573;29;20496;-67
2022/09/19 05:56:08;;;;;;;3.43;2.20;;;11.60;99.90;;;;;;6106184;29;20483;-68
2022/09/19 05:59:12;;;;;;;3.47;2.80;;;11.60;99.90;;;;;;6106223;29;20988;-68
2022/09/19 06:02:20;;;;;;;2.30;2.10;;;11.60;99.90;;;;;;6107059;29;20977;-68
2022/09/19 06:05:23;;;;;;;2.73;2.37;;;11.60;99.90;;;;;;6105992;29;20479;-68
2022/09/19 06:08:28;;;;;;;4.50;2.20;;;11.60;99.90;;;;;;6105784;29;20476;-67
2022/09/19 06:11:31;;;;;;;5.57;2.10;;;11.60;99.90;;;;;;6105465;29;20484;-67
2022/09/19 06:14:38;;;;;;;2.33;1.80;;;11.70;99.90;;;;;;6106043;28;21052;-68
2022/09/19 06:17:41;;;;;;;2.40;1.60;;;11.80;99.90;;;;;;6106393;28;20444;-69
2022/09/19 06:20:46;;;;;;;1.67;1.07;;;11.90;99.90;;;;;;6106459;29;20520;-68
2022/09/19 06:23:50;;;;;;;1.30;0.87;;;12.00;99.90;;;;;;6106258;28;20485;-68
2022/09/19 06:26:55;;;;;;;3.00;1.17;;;12.30;99.90;;;;;;6105761;29;20933;-66
2022/09/19 06:29:58;;;;;;;1.23;0.90;;;12.60;99.90;;;;;;6106015;29;20479;-68
2022/09/19 06:33:01;;;;;;;0.70;0.70;;;12.80;99.90;;;;;;6105329;29;20460;-67
2022/09/19 06:36:05;;;;;;;0.80;0.50;;;13.30;99.90;;;;;;6105773;29;20484;-66
2022/09/19 06:39:09;;;;;;;0.80;0.60;;;14.60;98.50;;;;;;6105756;29;20490;-68
2022/09/19 06:42:13;;;;;;;0.60;0.40;;;16.70;93.90;;;;;;6105799;29;20476;-67
2022/09/19 06:45:16;;;;;;;0.60;0.30;;;17.50;88.60;;;;;;6105884;29;20536;-67
2022/09/19 06:48:19;;;;;;;0.60;0.30;;;19.20;80.90;;;;;;6105819;29;20976;-66
2022/09/19 06:51:23;;;;;;;0.70;0.50;;;20.30;74.50;;;;;;6107088;29;20557;-67
2022/09/19 06:54:27;;;;;;;0.73;0.57;;;20.00;67.50;;;;;;6110804;29;20242;-67
2022/09/19 06:57:30;;;;;;;0.77;0.57;;;20.10;65.30;;;;;;6110837;29;20232;-67
2022/09/19 07:00:35;;;;;;;1.27;0.90;;;21.60;62.80;;;;;;6110454;29;20248;-66
2022/09/19 07:03:40;;;;;;;0.70;0.40;;;24.00;55.10;;;;;;6111808;29;20255;-67
2022/09/19 07:06:43;;;;;;;0.80;0.37;;;25.60;46.50;;;;;;6112060;29;20232;-68
2022/09/19 07:09:48;;;;;;;1.83;1.00;;;26.70;41.10;;;;;;6110993;29;20566;-68
2022/09/19 07:12:52;;;;;;;1.50;0.90;;;27.50;37.10;;;;;;6110094;29;20258;-68
2022/09/19 07:16:01;;;;;;;1.33;0.60;;;28.90;33.40;;;;;;6110109;29;20232;-68
2022/09/19 07:19:04;;;;;;;1.77;0.60;;;29.40;30.40;;;;;;6110086;28;20242;-67
2022/09/19 07:22:07;;;;;;;0.80;0.40;;;30.80;28.70;;;;;;6109704;29;20244;-67
2022/09/19 07:25:12;;;;;;;1.23;0.30;;;31.20;27.60;;;;;;6109703;28;20251;-68
2022/09/19 07:28:20;;;;;;;0.85;0.25;;;31.40;25.80;;;;;;6109907;29;20668;-68
2022/09/19 07:31:23;;;;;;;1.05;0.30;;;31.40;26.10;;;;;;6109444;28;20251;-67
2022/09/19 07:34:26;;;;;;;0.75;0.30;;;32.30;25.50;;;;;;6105096;29;20290;-67
2022/09/19 07:37:29;;;;;;;0.63;0.40;;;32.80;24.50;;;;;;6109309;28;20236;-68
2022/09/19 07:40:37;;;;;;;0.60;0.28;;;33.20;23.30;;;;;;6109276;29;20687;-66
2022/09/19 07:43:40;;;;;;;1.00;0.40;;;33.20;23.30;;;;;;6109241;29;20251;-65
2022/09/19 07:47:26;;;;;;;0.98;0.40;;;33.80;22.80;;;;;;6109683;29;20232;-66
2022/09/19 07:50:07;;;;;;;0.63;0.30;;;34.60;22.50;;;;;;6108904;29;20392;-66
2022/09/19 07:53:14;;;;;;;0.60;0.30;;;36.00;21.80;;;;;;6108891;29;20680;-66
2022/09/19 07:56:19;;;;;;;1.15;0.50;;;36.20;21.00;;;;;;6108988;29;20625;-67
2022/09/19 07:59:22;;;;;;;0.77;0.40;;;36.60;20.30;;;;;;6109292;29;20242;-66
2022/09/19 08:02:25;;;;;;;1.10;0.32;;;37.30;19.70;;;;;;6107731;29;20237;-67
2022/09/19 08:05:32;;;;;;;0.70;0.30;;;38.10;18.80;;;;;;6108614;29;20237;-66
2022/09/19 08:08:36;;;;;;;1.08;0.40;;;39.20;19.00;;;;;;6108364;28;20253;-66
2022/09/19 08:11:40;;;;;;;0.60;0.30;;;39.60;17.90;;;;;;6107872;28;20243;-66
2022/09/19 08:14:44;;;;;;;0.77;0.30;;;39.50;17.60;;;;;;6156421;28;20218;-66
2022/09/19 08:17:57;;;;;;;0.75;0.50;;;40.10;17.50;;;;;;6155855;28;20213;-66
2022/09/19 08:21:00;;;;;;;0.90;0.50;;;40.00;17.40;;;;;;6155832;28;20244;-67
2022/09/19 08:24:03;;;;;;;0.70;0.32;;;39.70;17.10;;;;;;6155814;28;20233;-65
2022/09/19 08:27:08;;;;;;;0.60;0.30;;;38.30;17.10;;;;;;6155466;28;20690;-65
2022/09/19 08:30:12;;;;;;;0.60;0.30;;;36.60;18.10;;;;;;6155786;28;20230;-66
2022/09/19 08:33:16;;;;;;;0.63;0.25;;;34.50;19.10;;;;;;6155529;28;20234;-65
2022/09/19 08:36:19;;;;;;;0.70;0.40;;;35.10;19.70;;;;;;6155912;28;20231;-66
2022/09/19 08:39:22;;;;;;;0.60;0.20;;;36.30;19.50;;;;;;6151193;28;20724;-67
2022/09/19 08:42:33;;;;;;;0.93;0.35;;;38.30;18.10;;;;;;6155158;28;20242;-66
2022/09/19 08:45:46;;;;;;;0.60;0.25;;;40.20;17.50;;;;;;6155162;28;20230;-66
2022/09/19 08:48:57;;;;;;;1.60;0.30;;;42.00;16.10;;;;;;6155259;28;20237;-66
2022/09/19 08:52:02;;;;;;;0.70;0.30;;;40.70;15.60;;;;;;6155403;28;20260;-66
2022/09/19 08:55:10;;;;;;;0.77;0.32;;;38.50;16.50;;;;;;6155154;28;20258;-66
2022/09/19 08:58:19;;;;;;;1.23;0.60;;;35.60;17.60;;;;;;6153634;28;20306;-66
2022/09/19 09:01:23;;;;;;;1.00;0.40;;;33.20;20.80;;;;;;6121161;28;20251;-67
2022/09/19 09:04:30;;;;;;;0.60;0.30;;;32.30;21.30;;;;;;6107885;29;20570;-66
2022/09/19 09:07:50;;;;;;;0.70;0.30;;;31.90;21.10;;;;;;6106932;29;20563;-66
2022/09/19 09:10:55;;;;;;;0.75;0.35;;;30.30;22.20;;;;;;6105313;29;20244;-71
2022/09/19 09:14:08;;;;;;;0.68;0.20;;;30.10;22.60;;;;;;6096272;28;20299;-71
2022/09/19 09:17:19;;;;;;;1.55;0.20;;;31.80;22.20;;;;;;6089996;29;20690;-72
2022/09/19 09:20:39;;;;;;;0.98;0.50;;;34.70;20.10;;;;;;6097602;28;20232;-72
2022/09/19 09:23:46;;;;;;;0.60;0.30;;;37.40;19.00;;;;;;6119215;28;20200;-72
2022/09/19 09:26:52;;;;;;;1.08;0.50;;;39.50;17.20;;;;;;6129292;28;20196;-72
2022/09/19 09:30:02;;;;;;;0.85;0.40;;;38.80;16.10;;;;;;6134640;28;20199;-73
2022/09/19 09:33:11;;;;;;;0.60;0.20;;;36.00;17.10;;;;;;6130486;28;20672;-72
2022/09/19 09:36:23;;;;;;;1.85;0.82;;;36.60;17.40;;;;;;6135209;28;20258;-73
2022/09/19 09:39:39;;;;;;;2.70;0.32;;;37.10;17.20;;;;;;6147403;28;20345;-73
2022/09/19 09:42:50;;;;;;;0.60;0.30;;;35.40;18.00;;;;;;6124866;28;20241;-73
2022/09/19 09:45:55;;;;;;;0.88;0.35;;;34.70;18.00;;;;;;6139731;28;20254;-72
2022/09/19 09:49:00;;;;;;;1.90;0.30;;;33.40;19.70;;;;;;6128826;28;20709;-71
2022/09/19 09:52:17;;;;;;;0.70;0.30;;;33.20;18.90;;;;;;6128659;28;20235;-67
2022/09/19 10:06:14;;;;;;;2.53;0.47;;;32.30;20.00;;;;;;6154509;28;20237;-70
2022/09/19 10:09:21;;;;;;;3.47;0.28;;;33.10;19.50;;;;;;6154332;28;20545;-66
2022/09/19 10:12:28;;;;;;;1.40;0.32;;;33.90;19.50;;;;;;6147383;28;20543;-68
2022/09/19 10:15:54;;;;;;;0.82;0.50;;;35.10;18.90;;;;;;6129093;29;20326;-69
2022/09/19 10:19:06;;;;;;;1.45;0.40;;;33.80;19.10;;;;;;6129017;28;20231;-68
2022/09/19 10:22:14;;;;;;;1.30;0.22;;;33.30;19.10;;;;;;6119994;29;20569;-69
2022/09/19 10:25:18;;;;;;;0.60;0.20;;;33.30;20.50;;;;;;6105373;29;20236;-68
2022/09/19 10:28:28;;;;;;;0.98;0.35;;;32.80;20.10;;;;;;6105809;29;20243;-68
2022/09/19 10:31:34;;;;;;;1.42;0.50;;;31.90;20.50;;;;;;6105515;29;20236;-69
2022/09/19 10:34:40;;;;;;;0.70;0.30;;;31.00;20.50;;;;;;6105507;28;20327;-68
2022/09/19 10:37:46;;;;;;;1.38;0.70;;;30.10;21.80;;;;;;6105217;29;20250;-68
2022/09/19 10:40:56;;;;;;;1.27;0.65;;;29.80;22.80;;;;;;6105388;28;20571;-68
2022/09/19 10:44:00;;;;;;;0.70;0.30;;;29.30;22.80;;;;;;6105282;29;20231;-68
2022/09/19 10:47:04;;;;;;;1.03;0.40;;;28.70;22.70;;;;;;6105342;29;20697;-71
2022/09/19 10:50:16;;;;;;;1.23;0.53;;;28.10;23.70;;;;;;6105350;29;20239;-73
2022/09/19 10:53:22;;;;;;;1.27;0.47;;;27.70;24.30;;;;;;6105489;29;20735;-71
2022/09/19 10:56:29;;;;;;;3.40;0.57;;;27.30;24.30;;;;;;6105038;29;20805;-70
2022/09/19 10:59:36;;;;;;;1.67;0.60;;;27.80;25.10;;;;;;6105534;29;20261;-71
2022/09/19 11:02:40;;;;;;;1.47;0.70;;;28.20;24.40;;;;;;6101558;29;20228;-71
2022/09/19 11:05:44;;;;;;;2.43;0.70;;;28.50;23.50;;;;;;6105078;28;20223;-71
2022/09/19 11:08:50;;;;;;;4.13;1.63;;;28.00;23.60;;;;;;6104113;29;20398;-70
2022/09/19 11:12:02;;;;;;;3.40;1.30;;;28.10;25.00;;;;;;6103992;28;20239;-70
2022/09/19 11:15:16;;;;;;;1.93;0.90;;;28.60;24.80;;;;;;6103630;29;20287;-71
2022/09/19 11:18:27;;;;;;;0.80;0.40;;;28.90;24.20;;;;;;6081845;29;20247;-72
2022/09/19 11:21:44;;;;;;;2.27;0.90;;;28.80;23.50;;;;;;6081747;29;20654;-72
2022/09/19 11:24:59;;;;;;;1.47;0.80;;;29.30;23.50;;;;;;6092105;29;20236;-71
2022/09/19 11:28:16;;;;;;;3.03;0.73;;;28.50;23.60;;;;;;6105030;29;20236;-72
2022/09/19 11:31:32;;;;;;;0.70;0.33;;;28.00;24.30;;;;;;6105068;29;20716;-72
2022/09/19 11:35:03;;;;;;;4.83;1.90;;;27.40;23.90;;;;;;6104973;29;20446;-65
2022/09/19 11:38:32;;;;;;;29.40;14.03;;;26.90;25.00;;;;;;6107661;29;20589;-68
2022/09/19 11:42:06;;;;;;;1.50;1.10;;;26.90;27.50;;;;;;6132539;28;20374;-68
2022/09/19 11:45:14;;;;;;;3.80;0.97;;;27.20;25.20;;;;;;6129232;28;20235;-67
2022/09/19 11:48:50;;;;;;;1.83;0.60;;;26.80;25.30;;;;;;6133076;28;20235;-67
2022/09/19 11:52:01;;;;;;;1.77;0.40;;;26.50;25.90;;;;;;6133215;28;20239;-69
2022/09/19 11:55:21;;;;;;;2.37;0.40;;;26.50;25.20;;;;;;6132874;28;20239;-65
2022/09/19 11:58:31;;;;;;;0.90;0.50;;;26.30;26.20;;;;;;6134600;28;20242;-64
2022/09/19 12:01:43;;;;;;;1.17;0.40;;;26.70;26.50;;;;;;6132754;28;20236;-67
2022/09/19 12:04:59;;;;;;;1.07;0.60;;;26.80;25.80;;;;;;6132748;28;20680;-72
2022/09/19 12:08:21;;;;;;;0.90;0.43;;;26.90;27.50;;;;;;6132396;28;20235;-72
2022/09/19 12:11:37;;;;;;;1.43;0.30;;;26.90;26.10;;;;;;6087836;29;20319;-72
2022/09/19 12:14:44;;;;;;;0.50;0.20;;;26.80;26.40;;;;;;6085655;29;20241;-69
2022/09/19 12:17:54;;;;;;;0.60;0.20;;;26.10;26.40;;;;;;6107933;29;20228;-71
2022/09/19 12:21:00;;;;;;;0.70;0.20;;;25.60;27.00;;;;;;6101807;29;20235;-68
2022/09/19 12:27:37;;;;;;;0.70;0.30;;;24.80;27.90;;;;;;6126044;29;20238;-71
2022/09/19 12:30:45;;;;;;;0.60;0.20;;;25.00;27.90;;;;;;6108383;29;20228;-68
2022/09/19 12:33:53;;;;;;;0.50;0.20;;;25.20;27.80;;;;;;6108508;29;20605;-66
2022/09/19 12:37:01;;;;;;;0.50;0.20;;;24.70;27.10;;;;;;6108409;29;20646;-70
2022/09/19 12:40:15;;;;;;;0.50;0.20;;;24.50;28.10;;;;;;6108068;29;20255;-68
2022/09/19 12:43:28;;;;;;;0.53;0.20;;;24.50;28.40;;;;;;6107655;29;20244;-69
2022/09/19 12:46:42;;;;;;;0.60;0.20;;;24.90;27.90;;;;;;6108118;29;20232;-68
2022/09/19 12:49:56;;;;;;;2.77;2.67;;;25.00;28.60;;;;;;6109055;29;20233;-67
2022/09/19 12:53:13;;;;;;;0.50;0.30;;;25.20;31.30;;;;;;6107983;29;20300;-67
2022/09/19 12:56:21;;;;;;;0.60;0.37;;;25.70;28.50;;;;;;6107947;29;20632;-68
2022/09/19 12:59:27;;;;;;;0.70;0.20;;;25.50;28.00;;;;;;6108127;29;20239;-68
2022/09/19 13:02:33;;;;;;;0.50;0.10;;;25.30;27.80;;;;;;6110402;29;20247;-68
2022/09/19 13:05:40;;;;;;;0.50;0.20;;;24.90;28.00;;;;;;6107808;29;20228;-68
2022/09/19 13:08:48;;;;;;;0.80;0.30;;;24.50;28.50;;;;;;6107048;28;20585;-68
2022/09/19 13:11:58;;;;;;;0.60;0.20;;;24.50;28.40;;;;;;6107153;29;20691;-67
2022/09/19 13:15:14;;;;;;;0.60;0.30;;;24.30;28.00;;;;;;6107013;29;20542;-67
2022/09/19 13:25:07;;;;;;;0.67;0.20;;;23.20;28.60;;;;;;6106457;29;20236;-67
2022/09/19 13:28:45;;;;;;;0.60;0.20;;;22.60;29.60;;;;;;6102569;29;20244;-68
2022/09/19 13:32:01;;;;;;;0.50;0.30;;;22.40;30.00;;;;;;6058813;29;20279;-69
2022/09/19 13:35:19;;;;;;;0.70;0.20;;;22.30;30.10;;;;;;6105310;29;20225;-69
2022/09/19 13:38:34;;;;;;;0.50;0.20;;;22.00;29.80;;;;;;6105640;29;20232;-69
2022/09/19 13:41:43;;;;;;;0.63;0.37;;;21.50;31.20;;;;;;6100442;29;20300;-69
2022/09/19 13:44:51;;;;;;;0.60;0.20;;;21.60;32.80;;;;;;6104734;28;20224;-68
2022/09/19 13:48:01;;;;;;;1.40;0.30;;;21.60;32.90;;;;;;6106197;29;20205;-69
2022/09/19 13:51:07;;;;;;;0.40;0.20;;;21.60;33.40;;;;;;6098134;29;20588;-69
2022/09/19 13:54:29;;;;;;;0.40;0.20;;;21.50;32.70;;;;;;6106701;28;20240;-69
2022/09/19 13:57:35;;;;;;;0.80;0.50;;;21.50;33.30;;;;;;6106463;29;20251;-69
2022/09/19 14:00:40;;;;;;;0.70;0.30;;;21.50;33.20;;;;;;6105883;29;20299;-69
2022/09/19 14:03:47;;;;;;;0.40;0.20;;;21.60;33.70;;;;;;6106353;29;20243;-69
2022/09/19 14:06:58;;;;;;;0.40;0.20;;;21.70;33.60;;;;;;6106481;29;20288;-69
2022/09/19 14:10:27;;;;;;;0.50;0.30;;;21.70;34.10;;;;;;6106047;29;20236;-69
2022/09/19 14:13:36;;;;;;;1.00;0.30;;;21.60;32.90;;;;;;6106118;29;20251;-69
2022/09/19 14:16:40;;;;;;;0.50;0.30;;;21.60;32.70;;;;;;6106074;29;20303;-68
2022/09/19 14:19:48;;;;;;;1.20;0.30;;;21.70;33.60;;;;;;6105927;28;20657;-70
2022/09/19 14:22:51;;;;;;;0.40;0.20;;;21.50;32.30;;;;;;6122801;29;20584;-68
2022/09/19 14:26:00;;;;;;;0.50;0.20;;;21.40;32.10;;;;;;6126490;28;20251;-68
2022/09/19 14:29:20;;;;;;;0.90;0.30;;;21.00;32.40;;;;;;6109907;29;20243;-68
2022/09/19 14:32:31;;;;;;;0.43;0.27;;;20.70;34.70;;;;;;6125812;29;20247;-69
2022/09/19 14:35:44;;;;;;;0.50;0.23;;;20.50;34.30;;;;;;6108450;29;20258;-70
2022/09/19 14:39:37;;;;;;;0.83;0.20;;;20.40;33.00;;;;;;6105927;29;20209;-68
2022/09/19 14:43:15;;;;;;;1.50;0.40;;;20.60;35.10;;;;;;6101375;28;20228;-68
2022/09/19 14:46:26;;;;;;;0.40;0.20;;;20.50;36.10;;;;;;6104291;29;20662;-69
2022/09/19 14:49:38;;;;;;;0.50;0.30;;;20.60;36.30;;;;;;6104968;29;20343;-67
2022/09/19 14:52:44;;;;;;;0.50;0.30;;;20.60;36.30;;;;;;6110601;29;20581;-67
2022/09/19 14:55:50;;;;;;;0.90;0.57;;;20.50;35.70;;;;;;6105857;29;20225;-69
2022/09/19 14:58:53;;;;;;;0.50;0.20;;;20.30;34.10;;;;;;6103899;28;20758;-69
2022/09/19 15:02:07;;;;;;;0.70;0.50;;;20.10;34.20;;;;;;6104126;29;20229;-70
2022/09/19 15:05:20;;;;;;;0.67;0.30;;;19.80;34.50;;;;;;6103654;29;20235;-70
2022/09/19 15:08:29;;;;;;;0.50;0.20;;;19.60;35.00;;;;;;6102338;29;21622;-68
2022/09/19 15:11:32;;;;;;;1.73;0.20;;;19.60;35.50;;;;;;6101159;29;20240;-69
2022/09/19 15:14:43;;;;;;;0.40;0.20;;;19.60;36.10;;;;;;6107911;29;20676;-70
2022/09/19 15:17:46;;;;;;;0.50;0.20;;;19.60;35.70;;;;;;6109085;28;20268;-69
2022/09/19 15:20:55;;;;;;;0.40;0.20;;;19.60;35.80;;;;;;6110423;29;20240;-70
2022/09/19 15:24:02;;;;;;;0.77;0.60;;;19.50;35.40;;;;;;6133132;28;20212;-70
2022/09/19 15:27:06;;;;;;;1.30;0.43;;;19.30;35.80;;;;;;6129525;29;20565;-69
2022/09/19 15:30:22;;;;;;;0.60;0.43;;;19.20;37.00;;;;;;6109612;29;20769;-69
2022/09/19 15:33:27;;;;;;;0.50;0.30;;;19.10;36.90;;;;;;6109711;29;20243;-70
2022/09/19 15:36:34;;;;;;;1.20;0.80;;;19.10;37.00;;;;;;6109485;29;20275;-69
2022/09/19 15:39:39;;;;;;;1.63;0.63;;;19.20;37.00;;;;;;6109413;29;20413;-69
2022/09/19 15:42:44;;;;;;;0.53;0.40;;;19.10;36.80;;;;;;6109479;29;20240;-66
2022/09/19 15:45:50;;;;;;;0.60;0.40;;;19.10;36.90;;;;;;6109247;28;20236;-67
2022/09/19 15:48:55;;;;;;;0.50;0.40;;;19.00;37.70;;;;;;6109010;29;20673;-68
2022/09/19 15:52:02;;;;;;;0.60;0.40;;;19.00;36.90;;;;;;6108648;29;20600;-68
2022/09/19 15:55:20;;;;;;;0.40;0.20;;;18.90;38.40;;;;;;6109109;29;20343;-69
2022/09/19 15:58:24;;;;;;;0.60;0.40;;;18.80;38.40;;;;;;6109034;29;20237;-69
2022/09/19 16:01:31;;;;;;;1.27;0.40;;;18.70;38.00;;;;;;6108792;29;20251;-68
2022/09/19 16:04:35;;;;;;;0.40;0.20;;;18.60;38.10;;;;;;6108933;29;20232;-68
2022/09/19 16:11:26;;;;;;;0.60;0.20;;;18.40;39.00;;;;;;6107623;29;20598;-68
2022/09/19 16:14:40;;;;;;;0.53;0.30;;;18.30;39.10;;;;;;6108199;29;20536;-68
2022/09/19 16:18:22;;;;;;;0.70;0.40;;;18.20;39.40;;;;;;6108224;28;20449;-68
2022/09/19 16:21:34;;;;;;;0.63;0.40;;;18.20;39.70;;;;;;6108320;29;20568;-68
2022/09/19 16:24:43;;;;;;;1.27;0.40;;;18.20;40.10;;;;;;6108220;29;20292;-68
2022/09/19 16:27:49;;;;;;;0.87;0.30;;;18.20;40.00;;;;;;6108087;29;20275;-69
2022/09/19 16:30:54;;;;;;;1.00;0.50;;;18.10;40.70;;;;;;6107851;29;20228;-70
2022/09/19 16:34:01;;;;;;;0.57;0.40;;;18.10;40.50;;;;;;6107857;29;20670;-67
2022/09/19 16:37:25;;;;;;;0.70;0.40;;;18.00;40.40;;;;;;6105438;29;20528;-70
2022/09/19 16:40:29;;;;;;;1.00;0.40;;;18.00;40.40;;;;;;6100316;29;20528;-69
2022/09/19 16:43:45;;;;;;;0.70;0.40;;;17.90;40.70;;;;;;6104046;29;20240;-68
2022/09/19 16:46:53;;;;;;;0.50;0.30;;;17.90;40.90;;;;;;6107199;29;20495;-67
2022/09/19 16:49:58;;;;;;;1.73;0.40;;;17.80;41.40;;;;;;6107453;29;20684;-68
2022/09/19 16:53:01;;;;;;;0.60;0.40;;;17.80;41.70;;;;;;6107649;28;20826;-68